sensor_id;sensor_type;location;lat;lon;timestamp;noise_LAeq;noise_LA_min;noise_LA_max;noise_LA01;noise_LA95
69616;Laerm;56822;52.516;4.708;2023-04-15T00:00:07;47.48;42.12;52.27;;
69616;Laerm;56822;52.516;4.708;2023-04-15T00:00:19;43.06;39.80;47.04;;
69616;Laerm;56822;52.516;4.708;2023-04-15T00:00:29;44.42;39.64;49.67;;
69616;Laerm;56822;52.516;4.708;2023-04-15T00:00:39;48.68;44.24;54.67;;
69616;Laerm;56822;52.516;4.708;2023-04-15T00:00:50;48.31;43.40;52.31;;
69616;Laerm;56822;52.516;4.708;2023-04-15T00:01:01;48.31;44.26;52.61;;
69616;Laerm;56822;52.516;4.708;2023-04-15T00:01:11;49.00;44.55;55.60;;
69616;Laerm;56822;52.516;4.708;2023-04-15T00:01:27;48.70;41.46;54.53;;
69616;Laerm;56822;52.516;4.708;2023-04-15T00:01:39;47.12;43.38;51.60;;
69616;Laerm;56822;52.516;4.708;2023-04-15T00:01:49;51.93;43.66;61.20;;
69616;Laerm;56822;52.516;4.708;2023-04-15T00:01:59;50.39;45.40;55.44;;
69616;Laerm;56822;52.516;4.708;2023-04-15T00:02:13;50.67;45.93;54.88;;
69616;Laerm;56822;52.516;4.708;2023-04-15T00:02:23;46.43;38.81;54.54;;
69616;Laerm;56822;52.516;4.708;2023-04-15T00:02:34;41.26;37.77;44.05;;
69616;Laerm;56822;52.516;4.708;2023-04-15T00:02:45;45.72;39.33;49.85;;
69616;Laerm;56822;52.516;4.708;2023-04-15T00:02:55;45.97;41.57;50.04;;
69616;Laerm;56822;52.516;4.708;2023-04-15T00:03:05;47.53;40.83;52.22;;
69616;Laerm;56822;52.516;4.708;2023-04-15T00:03:16;49.74;43.67;58.08;;
69616;Laerm;56822;52.516;4.708;2023-04-15T00:03:26;46.95;41.88;53.49;;
69616;Laerm;56822;52.516;4.708;2023-04-15T00:03:37;44.19;41.38;48.24;;
69616;Laerm;56822;52.516;4.708;2023-04-15T00:03:49;48.30;43.62;52.59;;
69616;Laerm;56822;52.516;4.708;2023-04-15T00:03:59;47.28;43.47;51.28;;
69616;Laerm;56822;52.516;4.708;2023-04-15T00:04:10;51.82;46.18;56.74;;
69616;Laerm;56822;52.516;4.708;2023-04-15T00:04:20;50.12;45.53;55.19;;
69616;Laerm;56822;52.516;4.708;2023-04-15T00:04:30;46.77;43.33;50.08;;
69616;Laerm;56822;52.516;4.708;2023-04-15T00:04:45;47.95;42.46;54.34;;
69616;Laerm;56822;52.516;4.708;2023-04-15T00:04:56;44.13;37.23;49.71;;
69616;Laerm;56822;52.516;4.708;2023-04-15T00:05:06;44.45;39.79;49.01;;
69616;Laerm;56822;52.516;4.708;2023-04-15T00:05:16;51.88;43.71;59.27;;
69616;Laerm;56822;52.516;4.708;2023-04-15T00:05:30;50.00;44.95;57.77;;
69616;Laerm;56822;52.516;4.708;2023-04-15T00:05:40;45.99;41.69;51.07;;
69616;Laerm;56822;52.516;4.708;2023-04-15T00:05:51;47.33;42.54;53.75;;
69616;Laerm;56822;52.516;4.708;2023-04-15T00:06:01;47.55;42.65;55.33;;
69616;Laerm;56822;52.516;4.708;2023-04-15T00:06:12;46.47;37.67;58.15;;
69616;Laerm;56822;52.516;4.708;2023-04-15T00:06:23;41.92;38.46;47.02;;
69616;Laerm;56822;52.516;4.708;2023-04-15T00:06:35;46.31;40.68;49.38;;
69616;Laerm;56822;52.516;4.708;2023-04-15T00:06:52;46.79;42.22;53.43;;
69616;Laerm;56822;52.516;4.708;2023-04-15T00:07:02;45.48;40.28;53.01;;
69616;Laerm;56822;52.516;4.708;2023-04-15T00:07:13;50.20;46.18;55.39;;
69616;Laerm;56822;52.516;4.708;2023-04-15T00:07:23;48.08;43.72;52.14;;
69616;Laerm;56822;52.516;4.708;2023-04-15T00:07:34;50.16;43.45;55.12;;
69616;Laerm;56822;52.516;4.708;2023-04-15T00:07:45;46.08;42.38;51.98;;
69616;Laerm;56822;52.516;4.708;2023-04-15T00:07:56;50.55;45.35;54.48;;
69616;Laerm;56822;52.516;4.708;2023-04-15T00:08:07;46.71;42.10;50.92;;
69616;Laerm;56822;52.516;4.708;2023-04-15T00:08:18;44.85;40.40;49.91;;
69616;Laerm;56822;52.516;4.708;2023-04-15T00:08:29;47.22;40.24;52.56;;
69616;Laerm;56822;52.516;4.708;2023-04-15T00:08:40;41.24;37.73;44.49;;
69616;Laerm;56822;52.516;4.708;2023-04-15T00:08:50;40.51;35.56;45.21;;
69616;Laerm;56822;52.516;4.708;2023-04-15T00:09:01;39.31;36.49;41.91;;
69616;Laerm;56822;52.516;4.708;2023-04-15T00:09:11;40.69;37.94;44.07;;
69616;Laerm;56822;52.516;4.708;2023-04-15T00:09:21;42.84;38.68;46.86;;
69616;Laerm;56822;52.516;4.708;2023-04-15T00:09:32;48.61;43.78;55.85;;
69616;Laerm;56822;52.516;4.708;2023-04-15T00:09:42;45.49;41.31;49.98;;
69616;Laerm;56822;52.516;4.708;2023-04-15T00:09:53;43.35;39.95;45.88;;
69616;Laerm;56822;52.516;4.708;2023-04-15T00:10:04;43.99;40.99;49.42;;
69616;Laerm;56822;52.516;4.708;2023-04-15T00:10:14;47.51;42.17;51.63;;
69616;Laerm;56822;52.516;4.708;2023-04-15T00:10:25;46.95;42.19;54.34;;
69616;Laerm;56822;52.516;4.708;2023-04-15T00:10:35;45.54;42.43;48.76;;
69616;Laerm;56822;52.516;4.708;2023-04-15T00:10:45;45.41;40.31;51.09;;
69616;Laerm;56822;52.516;4.708;2023-04-15T00:10:55;41.14;37.70;44.11;;
69616;Laerm;56822;52.516;4.708;2023-04-15T00:11:06;42.04;38.67;45.71;;
69616;Laerm;56822;52.516;4.708;2023-04-15T00:11:16;40.81;37.10;46.33;;
69616;Laerm;56822;52.516;4.708;2023-04-15T00:11:27;41.72;36.15;47.21;;
69616;Laerm;56822;52.516;4.708;2023-04-15T00:11:37;48.33;42.78;52.46;;
69616;Laerm;56822;52.516;4.708;2023-04-15T00:11:49;47.69;42.78;52.84;;
69616;Laerm;56822;52.516;4.708;2023-04-15T00:11:59;50.08;41.45;54.75;;
69616;Laerm;56822;52.516;4.708;2023-04-15T00:12:10;45.34;39.63;53.08;;
69616;Laerm;56822;52.516;4.708;2023-04-15T00:12:21;40.84;37.76;45.96;;
69616;Laerm;56822;52.516;4.708;2023-04-15T00:12:31;44.53;39.47;53.05;;
69616;Laerm;56822;52.516;4.708;2023-04-15T00:12:41;48.05;44.02;53.21;;
69616;Laerm;56822;52.516;4.708;2023-04-15T00:12:52;47.99;43.54;54.26;;
69616;Laerm;56822;52.516;4.708;2023-04-15T00:13:02;44.06;39.45;46.93;;
69616;Laerm;56822;52.516;4.708;2023-04-15T00:13:13;44.89;41.04;49.21;;
69616;Laerm;56822;52.516;4.708;2023-04-15T00:13:24;49.15;41.90;56.71;;
69616;Laerm;56822;52.516;4.708;2023-04-15T00:13:34;45.27;39.12;52.54;;
69616;Laerm;56822;52.516;4.708;2023-04-15T00:13:45;47.89;39.34;54.94;;
69616;Laerm;56822;52.516;4.708;2023-04-15T00:13:55;41.10;37.80;43.87;;
69616;Laerm;56822;52.516;4.708;2023-04-15T00:14:05;43.93;40.01;47.94;;
69616;Laerm;56822;52.516;4.708;2023-04-15T00:14:16;45.76;40.06;52.89;;
69616;Laerm;56822;52.516;4.708;2023-04-15T00:14:26;44.55;37.83;53.12;;
69616;Laerm;56822;52.516;4.708;2023-04-15T00:14:37;40.05;36.59;43.63;;
69616;Laerm;56822;52.516;4.708;2023-04-15T00:14:47;44.51;36.30;51.61;;
69616;Laerm;56822;52.516;4.708;2023-04-15T00:14:58;43.58;38.81;50.55;;
69616;Laerm;56822;52.516;4.708;2023-04-15T00:15:09;45.35;37.15;54.31;;
69616;Laerm;56822;52.516;4.708;2023-04-15T00:15:21;42.53;37.70;46.34;;
69616;Laerm;56822;52.516;4.708;2023-04-15T00:15:31;47.03;41.50;52.80;;
69616;Laerm;56822;52.516;4.708;2023-04-15T00:15:42;48.27;43.54;53.78;;
69616;Laerm;56822;52.516;4.708;2023-04-15T00:15:52;43.95;38.39;51.49;;
69616;Laerm;56822;52.516;4.708;2023-04-15T00:16:02;45.84;39.83;51.60;;
69616;Laerm;56822;52.516;4.708;2023-04-15T00:16:13;48.89;42.26;57.11;;
69616;Laerm;56822;52.516;4.708;2023-04-15T00:16:23;48.73;37.95;55.79;;
69616;Laerm;56822;52.516;4.708;2023-04-15T00:16:34;40.52;37.67;43.58;;
69616;Laerm;56822;52.516;4.708;2023-04-15T00:16:44;43.87;39.71;47.95;;
69616;Laerm;56822;52.516;4.708;2023-04-15T00:16:55;47.54;41.11;55.80;;
69616;Laerm;56822;52.516;4.708;2023-04-15T00:17:06;50.21;44.12;55.75;;
69616;Laerm;56822;52.516;4.708;2023-04-15T00:17:17;48.33;43.06;55.70;;
69616;Laerm;56822;52.516;4.708;2023-04-15T00:17:27;44.91;39.75;50.06;;
69616;Laerm;56822;52.516;4.708;2023-04-15T00:17:38;46.62;40.93;55.51;;
69616;Laerm;56822;52.516;4.708;2023-04-15T00:17:49;54.44;50.58;58.22;;
69616;Laerm;56822;52.516;4.708;2023-04-15T00:18:01;51.75;46.12;57.10;;
69616;Laerm;56822;52.516;4.708;2023-04-15T00:18:11;50.20;45.28;56.21;;
69616;Laerm;56822;52.516;4.708;2023-04-15T00:18:22;49.87;42.40;57.20;;
69616;Laerm;56822;52.516;4.708;2023-04-15T00:18:33;45.38;40.51;50.06;;
69616;Laerm;56822;52.516;4.708;2023-04-15T00:18:43;42.98;36.13;48.12;;
69616;Laerm;56822;52.516;4.708;2023-04-15T00:18:54;38.44;35.30;42.60;;
69616;Laerm;56822;52.516;4.708;2023-04-15T00:19:04;43.38;39.36;47.71;;
69616;Laerm;56822;52.516;4.708;2023-04-15T00:19:14;45.72;42.47;50.97;;
69616;Laerm;56822;52.516;4.708;2023-04-15T00:19:25;45.68;40.87;50.54;;
69616;Laerm;56822;52.516;4.708;2023-04-15T00:19:35;47.87;41.77;53.93;;
69616;Laerm;56822;52.516;4.708;2023-04-15T00:19:45;43.02;38.37;49.20;;
69616;Laerm;56822;52.516;4.708;2023-04-15T00:19:56;47.54;39.60;56.13;;
69616;Laerm;56822;52.516;4.708;2023-04-15T00:20:09;44.73;41.09;48.60;;
69616;Laerm;56822;52.516;4.708;2023-04-15T00:20:19;44.30;41.13;47.93;;
69616;Laerm;56822;52.516;4.708;2023-04-15T00:20:29;46.55;43.39;50.41;;
69616;Laerm;56822;52.516;4.708;2023-04-15T00:20:40;44.10;40.77;48.14;;
69616;Laerm;56822;52.516;4.708;2023-04-15T00:20:50;45.55;40.64;52.37;;
69616;Laerm;56822;52.516;4.708;2023-04-15T00:21:01;47.88;42.38;53.12;;
69616;Laerm;56822;52.516;4.708;2023-04-15T00:21:12;47.69;41.17;54.86;;
69616;Laerm;56822;52.516;4.708;2023-04-15T00:21:22;44.47;40.47;49.70;;
69616;Laerm;56822;52.516;4.708;2023-04-15T00:21:32;43.41;40.45;46.58;;
69616;Laerm;56822;52.516;4.708;2023-04-15T00:21:43;41.68;38.57;44.27;;
69616;Laerm;56822;52.516;4.708;2023-04-15T00:21:53;43.22;38.72;50.03;;
69616;Laerm;56822;52.516;4.708;2023-04-15T00:22:03;45.57;42.29;51.01;;
69616;Laerm;56822;52.516;4.708;2023-04-15T00:22:14;46.65;42.99;51.12;;
69616;Laerm;56822;52.516;4.708;2023-04-15T00:22:27;47.48;43.59;50.74;;
69616;Laerm;56822;52.516;4.708;2023-04-15T00:22:38;48.93;45.73;54.02;;
69616;Laerm;56822;52.516;4.708;2023-04-15T00:22:48;49.56;46.03;54.02;;
69616;Laerm;56822;52.516;4.708;2023-04-15T00:22:58;46.61;42.69;49.16;;
69616;Laerm;56822;52.516;4.708;2023-04-15T00:23:09;45.49;41.24;50.06;;
69616;Laerm;56822;52.516;4.708;2023-04-15T00:23:19;44.71;41.37;48.53;;
69616;Laerm;56822;52.516;4.708;2023-04-15T00:23:30;46.74;42.07;52.33;;
69616;Laerm;56822;52.516;4.708;2023-04-15T00:23:40;42.13;39.29;47.09;;
69616;Laerm;56822;52.516;4.708;2023-04-15T00:23:50;44.73;40.19;52.00;;
69616;Laerm;56822;52.516;4.708;2023-04-15T00:24:02;47.15;43.83;52.91;;
69616;Laerm;56822;52.516;4.708;2023-04-15T00:24:13;45.45;41.20;48.60;;
69616;Laerm;56822;52.516;4.708;2023-04-15T00:24:23;49.34;43.59;54.55;;
69616;Laerm;56822;52.516;4.708;2023-04-15T00:24:33;47.93;44.95;55.34;;
69616;Laerm;56822;52.516;4.708;2023-04-15T00:24:43;47.95;44.70;50.99;;
69616;Laerm;56822;52.516;4.708;2023-04-15T00:24:54;50.96;46.15;55.99;;
69616;Laerm;56822;52.516;4.708;2023-04-15T00:25:04;50.14;45.38;54.94;;
69616;Laerm;56822;52.516;4.708;2023-04-15T00:25:14;52.35;46.43;66.24;;
69616;Laerm;56822;52.516;4.708;2023-04-15T00:25:25;49.58;44.82;62.62;;
69616;Laerm;56822;52.516;4.708;2023-04-15T00:25:36;48.97;44.15;53.58;;
69616;Laerm;56822;52.516;4.708;2023-04-15T00:25:46;46.34;42.81;52.87;;
69616;Laerm;56822;52.516;4.708;2023-04-15T00:25:56;46.02;42.42;50.26;;
69616;Laerm;56822;52.516;4.708;2023-04-15T00:26:07;46.75;42.87;50.79;;
69616;Laerm;56822;52.516;4.708;2023-04-15T00:26:17;44.88;42.04;47.83;;
69616;Laerm;56822;52.516;4.708;2023-04-15T00:26:28;49.24;43.59;55.79;;
69616;Laerm;56822;52.516;4.708;2023-04-15T00:26:38;45.57;40.40;52.87;;
69616;Laerm;56822;52.516;4.708;2023-04-15T00:26:49;43.90;40.43;48.31;;
69616;Laerm;56822;52.516;4.708;2023-04-15T00:26:59;43.33;36.97;48.76;;
69616;Laerm;56822;52.516;4.708;2023-04-15T00:27:09;40.74;36.68;45.68;;
69616;Laerm;56822;52.516;4.708;2023-04-15T00:27:20;41.57;37.71;45.36;;
69616;Laerm;56822;52.516;4.708;2023-04-15T00:27:30;48.66;40.94;55.09;;
69616;Laerm;56822;52.516;4.708;2023-04-15T00:27:41;45.99;40.41;55.21;;
69616;Laerm;56822;52.516;4.708;2023-04-15T00:27:51;44.39;40.61;49.86;;
69616;Laerm;56822;52.516;4.708;2023-04-15T00:28:01;46.06;42.45;50.17;;
69616;Laerm;56822;52.516;4.708;2023-04-15T00:28:11;47.46;42.55;53.20;;
69616;Laerm;56822;52.516;4.708;2023-04-15T00:28:22;46.51;42.79;51.91;;
69616;Laerm;56822;52.516;4.708;2023-04-15T00:28:33;44.80;41.08;49.93;;
69616;Laerm;56822;52.516;4.708;2023-04-15T00:28:43;44.83;41.54;49.92;;
69616;Laerm;56822;52.516;4.708;2023-04-15T00:28:53;45.29;41.57;48.48;;
69616;Laerm;56822;52.516;4.708;2023-04-15T00:29:04;49.91;43.24;54.67;;
69616;Laerm;56822;52.516;4.708;2023-04-15T00:29:14;49.64;44.96;57.01;;
69616;Laerm;56822;52.516;4.708;2023-04-15T00:29:24;47.53;44.01;51.88;;
69616;Laerm;56822;52.516;4.708;2023-04-15T00:29:35;48.07;45.03;51.60;;
69616;Laerm;56822;52.516;4.708;2023-04-15T00:29:45;48.87;45.94;52.72;;
69616;Laerm;56822;52.516;4.708;2023-04-15T00:29:55;52.82;47.03;57.16;;
69616;Laerm;56822;52.516;4.708;2023-04-15T00:30:06;46.34;41.02;52.28;;
69616;Laerm;56822;52.516;4.708;2023-04-15T00:30:17;44.58;40.51;49.65;;
69616;Laerm;56822;52.516;4.708;2023-04-15T00:30:28;43.56;40.52;46.82;;
69616;Laerm;56822;52.516;4.708;2023-04-15T00:30:38;46.67;41.56;51.81;;
69616;Laerm;56822;52.516;4.708;2023-04-15T00:30:48;46.72;41.89;51.03;;
69616;Laerm;56822;52.516;4.708;2023-04-15T00:30:59;49.29;44.50;55.19;;
69616;Laerm;56822;52.516;4.708;2023-04-15T00:31:09;49.84;43.76;57.43;;
69616;Laerm;56822;52.516;4.708;2023-04-15T00:31:20;46.94;43.45;50.34;;
69616;Laerm;56822;52.516;4.708;2023-04-15T00:31:30;46.71;41.99;51.49;;
69616;Laerm;56822;52.516;4.708;2023-04-15T00:31:41;45.12;39.73;49.19;;
69616;Laerm;56822;52.516;4.708;2023-04-15T00:31:51;42.37;38.71;47.56;;
69616;Laerm;56822;52.516;4.708;2023-04-15T00:32:02;41.84;38.26;45.27;;
69616;Laerm;56822;52.516;4.708;2023-04-15T00:32:12;43.32;38.16;49.10;;
69616;Laerm;56822;52.516;4.708;2023-04-15T00:32:22;48.79;41.80;55.39;;
69616;Laerm;56822;52.516;4.708;2023-04-15T00:32:32;47.97;41.26;54.77;;
69616;Laerm;56822;52.516;4.708;2023-04-15T00:32:43;46.55;41.46;52.82;;
69616;Laerm;56822;52.516;4.708;2023-04-15T00:32:53;46.49;40.43;53.75;;
69616;Laerm;56822;52.516;4.708;2023-04-15T00:33:04;46.97;41.43;55.75;;
69616;Laerm;56822;52.516;4.708;2023-04-15T00:33:15;43.89;39.86;50.17;;
69616;Laerm;56822;52.516;4.708;2023-04-15T00:33:28;49.60;42.56;56.25;;
69616;Laerm;56822;52.516;4.708;2023-04-15T00:33:38;47.49;43.94;50.62;;
69616;Laerm;56822;52.516;4.708;2023-04-15T00:33:49;49.04;44.71;52.24;;
69616;Laerm;56822;52.516;4.708;2023-04-15T00:33:59;47.89;43.39;52.74;;
69616;Laerm;56822;52.516;4.708;2023-04-15T00:34:09;49.78;46.30;54.64;;
69616;Laerm;56822;52.516;4.708;2023-04-15T00:34:19;50.33;45.29;56.90;;
69616;Laerm;56822;52.516;4.708;2023-04-15T00:34:30;52.13;46.77;57.65;;
69616;Laerm;56822;52.516;4.708;2023-04-15T00:34:40;53.41;48.73;58.85;;
69616;Laerm;56822;52.516;4.708;2023-04-15T00:34:51;51.35;46.01;55.49;;
69616;Laerm;56822;52.516;4.708;2023-04-15T00:35:01;47.34;43.14;51.42;;
69616;Laerm;56822;52.516;4.708;2023-04-15T00:35:13;44.47;41.48;47.96;;
69616;Laerm;56822;52.516;4.708;2023-04-15T00:35:23;43.69;40.96;48.33;;
69616;Laerm;56822;52.516;4.708;2023-04-15T00:35:33;43.01;40.24;46.94;;
69616;Laerm;56822;52.516;4.708;2023-04-15T00:35:45;43.64;38.66;50.64;;
69616;Laerm;56822;52.516;4.708;2023-04-15T00:35:55;40.50;36.86;47.05;;
69616;Laerm;56822;52.516;4.708;2023-04-15T00:36:06;42.33;39.11;46.13;;
69616;Laerm;56822;52.516;4.708;2023-04-15T00:36:17;44.50;40.48;50.93;;
69616;Laerm;56822;52.516;4.708;2023-04-15T00:36:28;46.27;40.05;57.85;;
69616;Laerm;56822;52.516;4.708;2023-04-15T00:36:38;46.23;40.25;52.84;;
69616;Laerm;56822;52.516;4.708;2023-04-15T00:36:51;45.24;38.68;52.47;;
69616;Laerm;56822;52.516;4.708;2023-04-15T00:37:02;44.61;38.69;50.79;;
69616;Laerm;56822;52.516;4.708;2023-04-15T00:37:12;49.45;42.84;55.17;;
69616;Laerm;56822;52.516;4.708;2023-04-15T00:37:22;46.07;41.45;53.61;;
69616;Laerm;56822;52.516;4.708;2023-04-15T00:37:33;47.80;40.57;59.54;;
69616;Laerm;56822;52.516;4.708;2023-04-15T00:37:44;45.55;40.97;49.95;;
69616;Laerm;56822;52.516;4.708;2023-04-15T00:37:54;38.51;33.86;45.10;;
69616;Laerm;56822;52.516;4.708;2023-04-15T00:38:05;36.02;33.43;38.71;;
69616;Laerm;56822;52.516;4.708;2023-04-15T00:38:16;37.68;35.28;42.05;;
69616;Laerm;56822;52.516;4.708;2023-04-15T00:38:26;42.45;35.29;48.77;;
69616;Laerm;56822;52.516;4.708;2023-04-15T00:38:37;45.10;40.62;50.65;;
69616;Laerm;56822;52.516;4.708;2023-04-15T00:38:47;43.25;38.02;48.81;;
69616;Laerm;56822;52.516;4.708;2023-04-15T00:38:57;44.34;38.40;50.90;;
69616;Laerm;56822;52.516;4.708;2023-04-15T00:39:07;41.11;37.22;45.40;;
69616;Laerm;56822;52.516;4.708;2023-04-15T00:39:18;40.78;36.94;43.53;;
69616;Laerm;56822;52.516;4.708;2023-04-15T00:39:28;43.37;39.87;47.26;;
69616;Laerm;56822;52.516;4.708;2023-04-15T00:39:38;46.60;41.94;52.26;;
69616;Laerm;56822;52.516;4.708;2023-04-15T00:39:49;45.86;39.63;50.99;;
69616;Laerm;56822;52.516;4.708;2023-04-15T00:39:59;42.14;38.37;49.04;;
69616;Laerm;56822;52.516;4.708;2023-04-15T00:40:12;42.83;38.55;46.70;;
69616;Laerm;56822;52.516;4.708;2023-04-15T00:40:24;48.34;42.24;53.80;;
69616;Laerm;56822;52.516;4.708;2023-04-15T00:40:35;50.95;45.37;57.72;;
69616;Laerm;56822;52.516;4.708;2023-04-15T00:40:45;45.64;41.43;49.89;;
69616;Laerm;56822;52.516;4.708;2023-04-15T00:40:55;49.73;45.80;54.15;;
69616;Laerm;56822;52.516;4.708;2023-04-15T00:41:06;47.49;41.95;54.23;;
69616;Laerm;56822;52.516;4.708;2023-04-15T00:41:17;43.63;37.37;49.71;;
69616;Laerm;56822;52.516;4.708;2023-04-15T00:41:28;42.36;38.29;47.48;;
69616;Laerm;56822;52.516;4.708;2023-04-15T00:41:38;45.76;40.56;52.40;;
69616;Laerm;56822;52.516;4.708;2023-04-15T00:41:49;47.47;40.19;53.21;;
69616;Laerm;56822;52.516;4.708;2023-04-15T00:41:59;49.23;38.97;57.42;;
69616;Laerm;56822;52.516;4.708;2023-04-15T00:42:09;43.50;40.15;46.83;;
69616;Laerm;56822;52.516;4.708;2023-04-15T00:42:20;47.84;40.49;55.07;;
69616;Laerm;56822;52.516;4.708;2023-04-15T00:42:30;48.34;38.84;53.34;;
69616;Laerm;56822;52.516;4.708;2023-04-15T00:42:41;41.72;38.72;44.82;;
69616;Laerm;56822;52.516;4.708;2023-04-15T00:42:51;46.20;41.60;51.65;;
69616;Laerm;56822;52.516;4.708;2023-04-15T00:43:01;45.00;40.24;51.09;;
69616;Laerm;56822;52.516;4.708;2023-04-15T00:43:13;45.04;39.33;49.98;;
69616;Laerm;56822;52.516;4.708;2023-04-15T00:43:23;44.46;41.35;47.94;;
69616;Laerm;56822;52.516;4.708;2023-04-15T00:43:35;46.77;43.30;50.69;;
69616;Laerm;56822;52.516;4.708;2023-04-15T00:43:45;49.33;45.00;54.23;;
69616;Laerm;56822;52.516;4.708;2023-04-15T00:43:56;46.71;43.28;53.74;;
69616;Laerm;56822;52.516;4.708;2023-04-15T00:44:06;47.76;43.33;51.78;;
69616;Laerm;56822;52.516;4.708;2023-04-15T00:44:16;46.64;43.96;50.08;;
69616;Laerm;56822;52.516;4.708;2023-04-15T00:44:27;47.93;43.23;52.80;;
69616;Laerm;56822;52.516;4.708;2023-04-15T00:44:38;46.18;42.57;50.18;;
69616;Laerm;56822;52.516;4.708;2023-04-15T00:44:48;50.38;44.22;55.34;;
69616;Laerm;56822;52.516;4.708;2023-04-15T00:44:59;48.58;44.01;52.55;;
69616;Laerm;56822;52.516;4.708;2023-04-15T00:45:09;45.77;41.88;49.06;;
69616;Laerm;56822;52.516;4.708;2023-04-15T00:45:20;47.90;43.61;53.06;;
69616;Laerm;56822;52.516;4.708;2023-04-15T00:45:30;46.30;43.31;50.51;;
69616;Laerm;56822;52.516;4.708;2023-04-15T00:45:41;48.47;43.67;51.39;;
69616;Laerm;56822;52.516;4.708;2023-04-15T00:45:51;47.09;41.40;52.84;;
69616;Laerm;56822;52.516;4.708;2023-04-15T00:46:03;42.35;37.65;46.34;;
69616;Laerm;56822;52.516;4.708;2023-04-15T00:46:13;41.91;39.04;45.06;;
69616;Laerm;56822;52.516;4.708;2023-04-15T00:46:26;45.82;40.46;51.80;;
69616;Laerm;56822;52.516;4.708;2023-04-15T00:46:38;44.54;38.48;49.33;;
69616;Laerm;56822;52.516;4.708;2023-04-15T00:46:52;47.67;44.13;51.75;;
69616;Laerm;56822;52.516;4.708;2023-04-15T00:47:03;46.68;42.54;50.51;;
69616;Laerm;56822;52.516;4.708;2023-04-15T00:47:14;47.21;43.65;53.20;;
69616;Laerm;56822;52.516;4.708;2023-04-15T00:47:25;50.73;46.30;54.73;;
69616;Laerm;56822;52.516;4.708;2023-04-15T00:47:36;49.53;45.48;53.87;;
69616;Laerm;56822;52.516;4.708;2023-04-15T00:47:48;49.11;45.41;53.46;;
69616;Laerm;56822;52.516;4.708;2023-04-15T00:47:58;47.03;41.92;53.07;;
69616;Laerm;56822;52.516;4.708;2023-04-15T00:48:08;45.73;41.72;50.86;;
69616;Laerm;56822;52.516;4.708;2023-04-15T00:48:20;45.08;41.75;49.19;;
69616;Laerm;56822;52.516;4.708;2023-04-15T00:48:31;44.45;41.10;48.94;;
69616;Laerm;56822;52.516;4.708;2023-04-15T00:48:41;47.77;43.87;53.07;;
69616;Laerm;56822;52.516;4.708;2023-04-15T00:48:53;49.42;44.73;55.88;;
69616;Laerm;56822;52.516;4.708;2023-04-15T00:49:04;48.06;43.90;53.58;;
69616;Laerm;56822;52.516;4.708;2023-04-15T00:49:15;47.88;42.25;53.92;;
69616;Laerm;56822;52.516;4.708;2023-04-15T00:49:27;50.78;45.90;56.82;;
69616;Laerm;56822;52.516;4.708;2023-04-15T00:49:38;48.66;43.65;53.73;;
69616;Laerm;56822;52.516;4.708;2023-04-15T00:49:48;47.16;43.41;50.06;;
69616;Laerm;56822;52.516;4.708;2023-04-15T00:49:58;45.62;41.96;49.40;;
69616;Laerm;56822;52.516;4.708;2023-04-15T00:50:09;43.85;40.04;48.40;;
69616;Laerm;56822;52.516;4.708;2023-04-15T00:50:19;45.50;41.45;50.15;;
69616;Laerm;56822;52.516;4.708;2023-04-15T00:50:29;47.02;42.33;54.56;;
69616;Laerm;56822;52.516;4.708;2023-04-15T00:50:39;43.05;38.98;46.29;;
69616;Laerm;56822;52.516;4.708;2023-04-15T00:50:50;40.69;37.25;44.42;;
69616;Laerm;56822;52.516;4.708;2023-04-15T00:51:01;39.26;35.39;43.96;;
69616;Laerm;56822;52.516;4.708;2023-04-15T00:51:11;41.41;37.04;46.84;;
69616;Laerm;56822;52.516;4.708;2023-04-15T00:51:22;44.48;40.35;48.25;;
69616;Laerm;56822;52.516;4.708;2023-04-15T00:51:33;45.38;40.04;50.62;;
69616;Laerm;56822;52.516;4.708;2023-04-15T00:51:45;45.44;39.81;53.86;;
69616;Laerm;56822;52.516;4.708;2023-04-15T00:51:56;48.31;44.12;53.95;;
69616;Laerm;56822;52.516;4.708;2023-04-15T00:52:06;45.24;40.47;51.39;;
69616;Laerm;56822;52.516;4.708;2023-04-15T00:52:18;46.29;39.94;52.65;;
69616;Laerm;56822;52.516;4.708;2023-04-15T00:52:28;43.88;38.61;49.83;;
69616;Laerm;56822;52.516;4.708;2023-04-15T00:52:38;46.67;42.01;50.76;;
69616;Laerm;56822;52.516;4.708;2023-04-15T00:52:49;46.57;42.57;53.45;;
69616;Laerm;56822;52.516;4.708;2023-04-15T00:52:59;49.34;45.80;52.75;;
69616;Laerm;56822;52.516;4.708;2023-04-15T00:53:10;46.32;40.84;50.23;;
69616;Laerm;56822;52.516;4.708;2023-04-15T00:53:21;47.39;40.32;51.93;;
69616;Laerm;56822;52.516;4.708;2023-04-15T00:53:31;49.56;44.46;54.46;;
69616;Laerm;56822;52.516;4.708;2023-04-15T00:53:41;47.82;42.05;53.03;;
69616;Laerm;56822;52.516;4.708;2023-04-15T00:53:52;45.87;42.08;49.43;;
69616;Laerm;56822;52.516;4.708;2023-04-15T00:54:03;47.26;43.61;50.16;;
69616;Laerm;56822;52.516;4.708;2023-04-15T00:54:13;48.80;45.69;52.99;;
69616;Laerm;56822;52.516;4.708;2023-04-15T00:54:24;47.95;43.20;52.44;;
69616;Laerm;56822;52.516;4.708;2023-04-15T00:54:34;47.17;41.21;53.02;;
69616;Laerm;56822;52.516;4.708;2023-04-15T00:54:45;49.27;44.05;53.57;;
69616;Laerm;56822;52.516;4.708;2023-04-15T00:54:55;48.46;44.22;54.69;;
69616;Laerm;56822;52.516;4.708;2023-04-15T00:55:06;44.64;39.87;49.29;;
69616;Laerm;56822;52.516;4.708;2023-04-15T00:55:17;45.41;40.65;49.55;;
69616;Laerm;56822;52.516;4.708;2023-04-15T00:55:28;46.15;42.09;52.90;;
69616;Laerm;56822;52.516;4.708;2023-04-15T00:55:38;46.59;42.64;52.49;;
69616;Laerm;56822;52.516;4.708;2023-04-15T00:55:49;50.47;45.48;54.91;;
69616;Laerm;56822;52.516;4.708;2023-04-15T00:56:00;46.70;42.34;50.53;;
69616;Laerm;56822;52.516;4.708;2023-04-15T00:56:10;42.71;39.63;45.58;;
69616;Laerm;56822;52.516;4.708;2023-04-15T00:56:20;48.07;42.58;52.83;;
69616;Laerm;56822;52.516;4.708;2023-04-15T00:56:34;49.98;46.09;55.89;;
69616;Laerm;56822;52.516;4.708;2023-04-15T00:56:45;52.30;47.46;55.26;;
69616;Laerm;56822;52.516;4.708;2023-04-15T00:56:55;51.29;47.25;55.33;;
69616;Laerm;56822;52.516;4.708;2023-04-15T00:57:07;51.82;47.02;55.87;;
69616;Laerm;56822;52.516;4.708;2023-04-15T00:57:18;52.01;47.60;55.77;;
69616;Laerm;56822;52.516;4.708;2023-04-15T00:57:28;46.56;42.39;50.23;;
69616;Laerm;56822;52.516;4.708;2023-04-15T00:57:38;43.84;38.84;49.02;;
69616;Laerm;56822;52.516;4.708;2023-04-15T00:57:49;41.09;37.95;44.43;;
69616;Laerm;56822;52.516;4.708;2023-04-15T00:58:01;45.84;39.57;49.98;;
69616;Laerm;56822;52.516;4.708;2023-04-15T00:58:11;49.25;44.90;55.46;;
69616;Laerm;56822;52.516;4.708;2023-04-15T00:58:21;45.27;41.76;50.15;;
69616;Laerm;56822;52.516;4.708;2023-04-15T00:58:32;48.07;43.50;52.82;;
69616;Laerm;56822;52.516;4.708;2023-04-15T00:58:42;50.17;44.57;56.60;;
69616;Laerm;56822;52.516;4.708;2023-04-15T00:58:52;46.88;40.34;53.32;;
69616;Laerm;56822;52.516;4.708;2023-04-15T00:59:04;44.78;40.63;48.14;;
69616;Laerm;56822;52.516;4.708;2023-04-15T00:59:15;45.81;41.90;50.88;;
69616;Laerm;56822;52.516;4.708;2023-04-15T00:59:26;48.56;42.22;55.83;;
69616;Laerm;56822;52.516;4.708;2023-04-15T00:59:37;47.74;42.28;51.99;;
69616;Laerm;56822;52.516;4.708;2023-04-15T00:59:48;44.29;40.05;48.38;;
69616;Laerm;56822;52.516;4.708;2023-04-15T00:59:59;45.78;40.38;53.54;;